Terminal Aerodrome Forecast
Issued by NWS Mt. Holly, NJ

Home | Current Version | Previous Version | Text Only | Print | Product List | Glossary On
Versions: 1 2 3 4 5 6 7 8 9 10 11 12 13 14 15 16 17 18 19 20
231
FTUS41 KPHI 230525
TAFILG
TAF
KILG 230525Z 2306/2406 22005KT P6SM BKN120 OVC250
     FM231100 22008KT P6SM BKN080 OVC120
     FM231500 23012KT 4SM SHRA OVC015
      TEMPO 2315/2319 3SM TSRA BKN010CB
     FM231900 23014G21KT P6SM SCT025 OVC050 PROB30 2319/2323 3SM
      TSRA BKN025CB
     FM232300 24012KT P6SM SCT040 OVC120=

USA.gov is the U.S. government's official web portal to all federal, state and local government web resources and services.